Time;durP1;ratioP1;P1;durP2;ratioP2;P2;SDS_P1;SDS_P2;PMS_P1;PMS_P2;Temp;Humidity;BMP_temperature;BMP_pressure;BME280_temperature;BME280_humidity;BME280_pressure;Samples;Min_cycle;Max_cycle;Signal;HPM_P1;HPM_P2
2023/09/10 00:02:33;;;;;;;20.80;18.85;;;26.40;66.00;;;;;;4188197;28;19927;-59
2023/09/10 00:05:15;;;;;;;22.35;20.02;;;26.40;66.50;;;;;;4187015;28;20181;-59
2023/09/10 00:07:56;;;;;;;21.30;19.27;;;26.30;65.90;;;;;;4187158;28;20067;-59
2023/09/10 00:10:37;;;;;;;21.73;19.73;;;26.30;65.90;;;;;;4187256;28;20059;-59
2023/09/10 00:13:18;;;;;;;;;;;26.30;65.70;;;;;;4188167;28;20067;-61
2023/09/10 00:15:59;;;;;;;22.98;20.80;;;26.30;66.10;;;;;;4188052;28;19935;-60
2023/09/10 00:18:40;;;;;;;;;;;26.30;66.50;;;;;;4188244;28;20125;-59
2023/09/10 00:21:22;;;;;;;23.15;20.88;;;26.30;66.40;;;;;;4188401;28;20489;-59
2023/09/10 00:24:03;;;;;;;23.88;21.63;;;26.20;66.50;;;;;;4185170;28;20098;-59
2023/09/10 00:26:44;;;;;;;24.13;21.83;;;26.20;66.30;;;;;;4187207;28;20059;-59
2023/09/10 00:29:25;;;;;;;24.60;22.15;;;26.20;66.10;;;;;;4187302;28;20060;-59
2023/09/10 00:32:07;;;;;;;22.95;20.63;;;26.20;66.10;;;;;;4186623;28;20097;-59
2023/09/10 00:34:48;;;;;;;22.85;20.55;;;26.20;66.00;;;;;;4185640;28;20047;-59
2023/09/10 00:37:30;;;;;;;23.27;21.08;;;26.20;66.00;;;;;;4187515;28;20144;-59
2023/09/10 00:40:12;;;;;;;24.50;21.80;;;26.20;65.90;;;;;;4186051;28;20137;-59
2023/09/10 00:42:53;;;;;;;22.02;19.85;;;26.10;65.90;;;;;;4180000;28;20047;-59
2023/09/10 00:45:34;;;;;;;21.08;19.08;;;26.20;65.90;;;;;;4169804;28;20187;-59
2023/09/10 00:48:15;;;;;;;22.02;19.92;;;26.20;66.00;;;;;;4169763;28;20047;-59
2023/09/10 00:50:56;;;;;;;22.08;19.77;;;26.10;65.90;;;;;;4170364;28;20052;-58
2023/09/10 00:53:38;;;;;;;;;;;26.10;65.90;;;;;;4177875;28;20063;-58
2023/09/10 00:56:21;;;;;;;25.00;22.50;;;26.10;66.10;;;;;;4186901;28;20390;-58
2023/09/10 00:59:02;;;;;;;25.05;22.55;;;26.10;66.50;;;;;;4186136;28;20106;-59
2023/09/10 01:01:44;;;;;;;25.38;22.88;;;26.10;66.20;;;;;;4186596;28;20717;-61
2023/09/10 01:04:24;;;;;;;;;;;26.10;66.20;;;;;;4187116;28;20055;-61
2023/09/10 01:07:05;;;;;;;25.45;22.63;;;26.10;66.30;;;;;;4187188;28;19931;-61
2023/09/10 01:09:48;;;;;;;;;;;26.10;66.80;;;;;;4184895;28;20048;-61
2023/09/10 01:12:43;;;;;;;23.30;21.00;;;26.00;66.60;;;;;;4174327;28;19931;-61
2023/09/10 01:15:29;;;;;;;25.05;22.55;;;26.00;66.60;;;;;;4185470;28;20068;-59
2023/09/10 01:18:16;;;;;;;25.23;22.60;;;26.00;66.30;;;;;;4186061;28;20071;-59
2023/09/10 01:21:28;;;;;;;24.65;22.25;;;26.00;66.10;;;;;;4169849;28;20060;-59
2023/09/10 01:24:21;;;;;;;24.15;21.77;;;26.00;65.70;;;;;;4168843;28;20055;-59
2023/09/10 01:27:03;;;;;;;23.27;20.98;;;25.90;65.90;;;;;;4170009;28;20514;-58
2023/09/10 01:29:45;;;;;;;25.95;23.25;;;26.00;66.00;;;;;;4169545;28;20052;-59
2023/09/10 01:32:29;;;;;;;;;;;26.00;66.00;;;;;;4170625;28;20064;-59
2023/09/10 01:35:18;;;;;;;23.35;20.85;;;26.00;66.10;;;;;;4170112;28;20740;-59
2023/09/10 01:38:05;;;;;;;25.13;22.70;;;25.90;66.10;;;;;;4182323;28;20121;-59
2023/09/10 01:40:53;;;;;;;23.92;21.52;;;25.90;65.90;;;;;;4183274;28;20118;-59
2023/09/10 01:43:36;;;;;;;23.20;20.90;;;25.90;65.80;;;;;;4186644;28;20047;-60
2023/09/10 01:46:17;;;;;;;22.70;20.50;;;25.90;65.90;;;;;;4186364;28;20083;-61
2023/09/10 01:48:58;;;;;;;24.70;22.27;;;25.90;65.90;;;;;;4186588;28;20194;-60
2023/09/10 01:51:40;;;;;;;23.95;21.40;;;25.90;65.80;;;;;;4169028;28;20056;-60
2023/09/10 01:54:21;;;;;;;24.55;21.88;;;25.90;65.80;;;;;;4169673;28;20126;-60
2023/09/10 01:57:02;;;;;;;20.58;18.58;;;25.90;65.70;;;;;;4176253;28;20059;-60
2023/09/10 01:59:45;;;;;;;21.55;19.48;;;25.90;65.40;;;;;;4184770;28;20570;-60
2023/09/10 02:02:26;;;;;;;21.17;18.98;;;25.90;65.40;;;;;;4185882;28;20109;-61
2023/09/10 02:05:08;;;;;;;23.00;20.67;;;25.90;65.50;;;;;;4189274;28;20822;-60
2023/09/10 02:07:48;;;;;;;22.60;20.02;;;25.80;65.50;;;;;;4189658;28;20059;-61
2023/09/10 02:10:32;;;;;;;22.23;19.45;;;25.80;65.50;;;;;;4186846;28;20162;-61
2023/09/10 02:13:13;;;;;;;22.08;19.98;;;25.80;65.40;;;;;;4172688;28;20122;-61
2023/09/10 02:15:55;;;;;;;;;;;25.80;65.20;;;;;;4173023;28;20048;-60
2023/09/10 02:18:36;;;;;;;21.92;19.67;;;25.80;65.50;;;;;;4188564;28;19927;-60
2023/09/10 02:21:18;;;;;;;21.80;19.55;;;25.80;66.00;;;;;;4189384;28;20163;-60
2023/09/10 02:23:59;;;;;;;21.35;19.23;;;25.70;65.60;;;;;;4189194;28;20074;-61
2023/09/10 02:26:40;;;;;;;21.08;18.98;;;25.80;65.70;;;;;;4187992;28;20083;-61
2023/09/10 02:29:21;;;;;;;21.48;19.48;;;25.70;65.60;;;;;;4186082;28;20097;-61
2023/09/10 02:32:03;;;;;;;21.38;19.27;;;25.70;65.60;;;;;;4188906;28;20059;-61
2023/09/10 02:34:44;;;;;;;23.52;21.13;;;25.70;65.60;;;;;;4185583;28;20056;-61
2023/09/10 02:37:26;;;;;;;25.00;22.45;;;25.70;65.60;;;;;;4187522;28;20063;-60
2023/09/10 02:40:08;;;;;;;;;;;25.70;65.50;;;;;;4170152;28;20052;-60
2023/09/10 02:42:49;;;;;;;21.50;19.33;;;25.70;65.70;;;;;;4172593;28;19927;-60
2023/09/10 02:45:30;;;;;;;19.58;17.67;;;25.70;66.00;;;;;;4183556;28;20170;-60
2023/09/10 02:48:13;;;;;;;19.73;17.83;;;25.60;65.50;;;;;;4187737;28;20055;-60
2023/09/10 02:50:55;;;;;;;20.08;18.13;;;25.60;65.40;;;;;;4187635;28;20055;-60
2023/09/10 02:53:35;;;;;;;20.77;18.70;;;25.60;66.20;;;;;;4188860;28;20506;-60
2023/09/10 02:56:16;;;;;;;21.30;19.17;;;25.60;65.30;;;;;;4187782;28;20063;-60
2023/09/10 02:58:57;;;;;;;;;;;25.60;65.30;;;;;;4188952;28;20125;-61
2023/09/10 03:01:38;;;;;;;19.52;17.40;;;25.60;65.60;;;;;;4185088;28;19928;-61
2023/09/10 03:04:21;;;;;;;18.80;17.05;;;25.60;65.90;;;;;;4175721;28;20391;-60
2023/09/10 03:07:02;;;;;;;19.33;17.52;;;25.60;65.50;;;;;;4186933;28;20400;-60
2023/09/10 03:09:43;;;;;;;17.65;15.63;;;25.50;65.20;;;;;;4188226;28;20083;-61
2023/09/10 03:12:27;;;;;;;18.88;17.17;;;25.60;65.20;;;;;;4182276;28;20050;-60
2023/09/10 03:15:10;;;;;;;14.77;13.57;;;25.60;65.30;;;;;;4186499;28;20126;-61
2023/09/10 03:17:51;;;;;;;16.75;15.20;;;25.60;65.20;;;;;;4186797;28;20507;-60
2023/09/10 03:20:33;;;;;;;16.15;14.65;;;25.50;65.10;;;;;;4171945;28;20207;-61
2023/09/10 03:23:14;;;;;;;16.98;15.38;;;25.50;65.10;;;;;;4171723;28;20491;-60
2023/09/10 03:25:55;;;;;;;17.17;15.57;;;25.50;65.20;;;;;;4169967;28;20068;-59
2023/09/10 03:28:37;;;;;;;16.50;14.77;;;25.50;65.20;;;;;;4180641;28;20056;-59
2023/09/10 03:31:18;;;;;;;17.48;15.88;;;25.50;65.20;;;;;;4185940;28;20059;-60
2023/09/10 03:34:00;;;;;;;18.05;16.25;;;25.50;65.10;;;;;;4186821;28;20047;-60
2023/09/10 03:36:42;;;;;;;17.60;16.00;;;25.50;65.10;;;;;;4170240;28;20051;-61
2023/09/10 03:39:23;;;;;;;16.48;14.88;;;25.50;65.00;;;;;;4168850;28;20487;-59
2023/09/10 03:42:04;;;;;;;;;;;25.50;65.00;;;;;;4170614;28;20112;-59
2023/09/10 03:44:45;;;;;;;14.88;13.57;;;25.40;65.00;;;;;;4155012;28;19953;-59
2023/09/10 03:47:28;;;;;;;22.13;19.92;;;25.40;65.60;;;;;;4162310;28;20059;-59
2023/09/10 03:50:11;;;;;;;13.07;11.98;;;25.40;65.20;;;;;;4186429;28;20453;-59
2023/09/10 03:52:55;;;;;;;12.38;11.48;;;25.30;65.00;;;;;;4186608;28;20121;-59
2023/09/10 03:55:35;;;;;;;10.10;9.40;;;25.40;64.90;;;;;;4186759;28;20063;-59
2023/09/10 03:58:16;;;;;;;10.43;9.60;;;25.40;64.80;;;;;;4188074;28;20071;-60
2023/09/10 04:01:02;;;;;;;9.63;8.95;;;25.40;64.70;;;;;;4187865;28;20145;-59
2023/09/10 04:03:43;;;;;;;12.57;11.48;;;25.30;64.70;;;;;;4186909;28;20473;-60
2023/09/10 04:06:24;;;;;;;14.40;13.23;;;25.30;64.70;;;;;;4187444;28;20056;-59
2023/09/10 04:09:07;;;;;;;;;;;25.30;65.50;;;;;;4187626;28;20055;-59
2023/09/10 04:11:48;;;;;;;13.25;12.13;;;25.30;64.90;;;;;;4187830;28;19927;-59
2023/09/10 04:14:30;;;;;;;;;;;25.30;65.40;;;;;;4186867;28;20059;-59
2023/09/10 04:17:16;;;;;;;12.23;11.30;;;25.30;65.30;;;;;;4178599;28;19927;-59
2023/09/10 04:19:57;;;;;;;12.40;11.57;;;25.30;65.40;;;;;;4187456;28;20459;-59
2023/09/10 04:22:38;;;;;;;13.00;12.00;;;25.20;65.10;;;;;;4197985;28;20383;-59
2023/09/10 04:25:21;;;;;;;;;;;25.30;65.00;;;;;;4186024;28;20055;-59
2023/09/10 04:28:02;;;;;;;13.77;12.63;;;25.20;65.20;;;;;;4187083;28;20272;-59
2023/09/10 04:30:43;;;;;;;;;;;25.20;65.70;;;;;;4186770;28;20066;-59
2023/09/10 04:33:24;;;;;;;;;;;25.20;65.60;;;;;;4186312;28;19931;-59
2023/09/10 04:36:06;;;;;;;11.98;11.25;;;25.20;66.10;;;;;;4186359;28;19946;-58
2023/09/10 04:38:47;;;;;;;12.48;11.55;;;25.10;66.00;;;;;;4185437;28;20051;-57
2023/09/10 04:41:29;;;;;;;12.45;11.52;;;25.20;65.70;;;;;;4169056;28;20055;-57
2023/09/10 04:44:11;;;;;;;11.82;11.02;;;25.10;65.50;;;;;;4160584;28;20146;-56
2023/09/10 04:46:54;;;;;;;;;;;25.10;65.30;;;;;;4185819;28;20511;-58
2023/09/10 04:49:36;;;;;;;19.10;17.25;;;25.10;65.50;;;;;;4184869;28;19973;-58
2023/09/10 04:52:16;;;;;;;18.42;16.77;;;25.10;65.70;;;;;;4187123;28;20055;-59
2023/09/10 04:54:57;;;;;;;;;;;25.10;65.50;;;;;;4185972;28;20052;-53
2023/09/10 04:57:40;;;;;;;13.07;11.98;;;25.10;65.50;;;;;;4185141;28;19931;-59
2023/09/10 05:00:21;;;;;;;14.77;13.57;;;25.10;65.90;;;;;;4186346;28;20463;-59
2023/09/10 05:03:02;;;;;;;15.77;14.38;;;25.10;65.50;;;;;;4186905;28;20047;-60
2023/09/10 05:05:45;;;;;;;15.70;14.48;;;25.10;65.40;;;;;;4184497;28;20051;-60
2023/09/10 05:08:26;;;;;;;15.23;13.90;;;25.10;65.40;;;;;;4178593;28;20105;-60
2023/09/10 05:11:07;;;;;;;14.00;12.70;;;25.10;65.30;;;;;;4185558;28;20071;-60
2023/09/10 05:13:49;;;;;;;13.55;12.50;;;25.10;65.30;;;;;;4169661;28;20064;-60
2023/09/10 05:16:30;;;;;;;13.75;12.55;;;25.10;65.40;;;;;;4184694;28;20055;-60
2023/09/10 05:19:11;;;;;;;;;;;25.00;65.40;;;;;;4185304;28;20150;-61
2023/09/10 05:21:52;;;;;;;12.20;11.10;;;25.00;65.50;;;;;;4175216;28;20545;-60
2023/09/10 05:24:33;;;;;;;12.32;11.32;;;25.00;66.50;;;;;;4170886;28;20508;-60
2023/09/10 05:27:14;;;;;;;11.05;10.27;;;25.00;66.20;;;;;;4183177;28;20054;-61
2023/09/10 05:29:56;;;;;;;11.23;10.43;;;25.00;66.30;;;;;;4186449;28;20052;-59
2023/09/10 05:32:37;;;;;;;10.45;9.75;;;25.00;66.30;;;;;;4186056;28;20084;-60
2023/09/10 05:35:18;;;;;;;9.73;9.13;;;25.00;67.20;;;;;;4185966;28;20063;-60
2023/09/10 05:37:59;;;;;;;11.07;10.27;;;25.00;66.30;;;;;;4183801;28;20050;-60
2023/09/10 05:40:40;;;;;;;12.10;11.30;;;25.00;66.40;;;;;;4188951;28;20051;-60
2023/09/10 05:43:21;;;;;;;11.35;10.55;;;25.00;66.40;;;;;;4189750;28;20141;-60
2023/09/10 05:46:04;;;;;;;13.25;12.05;;;25.00;66.50;;;;;;4188907;28;20055;-60
2023/09/10 05:48:47;;;;;;;13.75;12.50;;;25.00;66.60;;;;;;4189973;28;20570;-60
2023/09/10 05:51:28;;;;;;;;;;;25.00;66.60;;;;;;4189981;28;20494;-60
2023/09/10 05:54:10;;;;;;;13.45;12.35;;;25.00;66.90;;;;;;4187711;28;19927;-60
2023/09/10 05:56:51;;;;;;;;;;;25.00;67.40;;;;;;4188978;28;20093;-60
2023/09/10 05:59:31;;;;;;;12.43;11.45;;;25.00;67.40;;;;;;4189568;28;19932;-60
2023/09/10 06:02:14;;;;;;;;;;;25.00;67.80;;;;;;4189496;28;20071;-60
2023/09/10 06:04:55;;;;;;;11.93;11.02;;;25.00;67.70;;;;;;4188185;28;20054;-61
2023/09/10 06:07:36;;;;;;;14.30;12.85;;;25.00;68.00;;;;;;4188043;28;20060;-60
2023/09/10 06:10:16;;;;;;;13.20;12.00;;;25.00;67.70;;;;;;4181227;28;20122;-60
2023/09/10 06:12:58;;;;;;;13.88;12.75;;;25.00;68.60;;;;;;4176757;28;20183;-64
2023/09/10 06:15:40;;;;;;;16.42;14.93;;;25.00;67.50;;;;;;4187518;28;20059;-59
2023/09/10 06:18:23;;;;;;;19.20;17.25;;;25.00;67.40;;;;;;4188692;28;20056;-61
2023/09/10 06:21:04;;;;;;;21.63;19.50;;;25.00;67.40;;;;;;4188077;28;20055;-59
2023/09/10 06:23:45;;;;;;;25.27;21.67;;;25.00;68.60;;;;;;4189230;28;20048;-59
2023/09/10 06:26:26;;;;;;;;;;;25.00;69.40;;;;;;4189446;28;20105;-60
2023/09/10 06:29:07;;;;;;;27.67;23.10;;;25.00;69.70;;;;;;4198394;28;19931;-61
2023/09/10 06:31:48;;;;;;;24.25;20.88;;;25.00;70.30;;;;;;4182729;28;20396;-60
2023/09/10 06:34:31;;;;;;;24.55;21.95;;;25.00;70.00;;;;;;4175422;28;20075;-60
2023/09/10 06:37:12;;;;;;;25.70;23.08;;;25.00;70.00;;;;;;4187347;28;20071;-61
2023/09/10 06:39:53;;;;;;;24.85;22.38;;;25.00;70.00;;;;;;4186862;28;20055;-61
2023/09/10 06:42:34;;;;;;;27.38;24.40;;;25.00;70.10;;;;;;4185346;28;20064;-59
2023/09/10 06:45:26;;;;;;;24.80;22.23;;;24.90;70.00;;;;;;4170926;28;20056;-58
2023/09/10 06:48:08;;;;;;;24.85;22.35;;;25.00;70.10;;;;;;4178472;28;20113;-59
2023/09/10 06:50:50;;;;;;;32.85;28.10;;;25.00;70.10;;;;;;4188935;28;20372;-53
2023/09/10 06:53:31;;;;;;;30.58;27.48;;;25.00;70.00;;;;;;4173003;28;20059;-58
2023/09/10 06:56:12;;;;;;;31.77;28.52;;;25.00;70.10;;;;;;4171670;28;20558;-59
2023/09/10 06:58:53;;;;;;;32.00;28.70;;;25.00;70.40;;;;;;4171598;28;20052;-59
2023/09/10 07:01:37;;;;;;;30.48;27.23;;;25.00;70.50;;;;;;4189143;28;20055;-59
2023/09/10 07:04:20;;;;;;;34.22;30.75;;;25.00;70.50;;;;;;4188769;28;20151;-59
2023/09/10 07:07:03;;;;;;;34.00;30.45;;;25.00;70.60;;;;;;4187631;28;20055;-59
2023/09/10 07:09:44;;;;;;;37.20;33.17;;;25.00;70.70;;;;;;4188986;28;20190;-60
2023/09/10 07:12:25;;;;;;;;;;;25.00;70.90;;;;;;4174334;28;20067;-60
2023/09/10 07:15:06;;;;;;;36.13;32.33;;;24.90;70.80;;;;;;4187809;28;19935;-59
2023/09/10 07:17:47;;;;;;;39.15;34.95;;;25.00;71.10;;;;;;4188113;28;20930;-60
2023/09/10 07:20:28;;;;;;;37.85;33.58;;;25.00;71.20;;;;;;4161529;28;20063;-58
2023/09/10 07:23:10;;;;;;;40.20;33.90;;;24.90;71.30;;;;;;4180933;28;20060;-58
2023/09/10 07:25:52;;;;;;;36.58;32.78;;;25.00;72.40;;;;;;4187458;28;20042;-58
2023/09/10 07:28:32;;;;;;;40.03;34.80;;;25.00;71.60;;;;;;4188367;28;20063;-58
2023/09/10 07:31:13;;;;;;;36.75;32.58;;;25.00;71.80;;;;;;4187043;28;20105;-58
2023/09/10 07:33:54;;;;;;;37.92;33.28;;;25.00;72.00;;;;;;4187259;28;20400;-58
2023/09/10 07:36:35;;;;;;;37.05;33.15;;;25.00;72.20;;;;;;4187875;28;20059;-58
2023/09/10 07:39:19;;;;;;;37.03;32.97;;;25.00;72.50;;;;;;4187181;28;20047;-58
2023/09/10 07:42:00;;;;;;;35.47;31.75;;;25.10;72.90;;;;;;4185982;28;20096;-59
2023/09/10 07:44:41;;;;;;;;;;;25.10;73.10;;;;;;4188015;28;20121;-59
2023/09/10 07:47:22;;;;;;;37.40;33.45;;;25.10;73.10;;;;;;4184975;28;19927;-59
2023/09/10 07:50:04;;;;;;;36.50;32.67;;;25.10;74.00;;;;;;4177270;28;20043;-59
2023/09/10 07:52:45;;;;;;;37.33;33.42;;;25.10;73.40;;;;;;4187578;28;20512;-59
2023/09/10 07:55:27;;;;;;;37.65;33.67;;;25.10;74.50;;;;;;4187130;28;20058;-59
2023/09/10 07:58:09;;;;;;;37.40;33.25;;;25.10;73.70;;;;;;4175915;28;20047;-58
2023/09/10 08:00:54;;;;;;;40.40;36.03;;;25.20;73.80;;;;;;4186246;28;20513;-58
2023/09/10 08:03:36;;;;;;;37.45;33.55;;;25.20;73.90;;;;;;4170537;28;20102;-59
2023/09/10 08:06:19;;;;;;;37.97;33.88;;;25.20;73.90;;;;;;4170112;28;20155;-59
2023/09/10 08:09:00;;;;;;;36.10;32.30;;;25.30;74.00;;;;;;4168480;28;20059;-59
2023/09/10 08:11:42;;;;;;;;;;;25.30;73.90;;;;;;4169898;28;20506;-59
2023/09/10 08:14:23;;;;;;;38.78;33.20;;;25.30;73.70;;;;;;4169832;28;19931;-59
2023/09/10 08:17:04;;;;;;;;;;;25.30;73.70;;;;;;4184871;28;20055;-58
2023/09/10 08:19:45;;;;;;;36.28;32.47;;;25.30;73.60;;;;;;4186972;28;20038;-58
2023/09/10 08:22:26;;;;;;;34.78;31.08;;;25.30;73.60;;;;;;4186202;28;20063;-60
2023/09/10 08:25:08;;;;;;;34.72;30.90;;;25.40;73.70;;;;;;4186717;28;20059;-59
2023/09/10 08:27:51;;;;;;;35.92;30.48;;;25.40;73.60;;;;;;4186000;28;20055;-59
2023/09/10 08:30:32;;;;;;;35.55;31.60;;;25.40;73.60;;;;;;4185090;28;20060;-59
2023/09/10 08:33:15;;;;;;;30.55;26.92;;;25.40;73.50;;;;;;4179637;28;20499;-58
2023/09/10 08:36:00;;;;;;;29.20;25.38;;;25.50;73.40;;;;;;4124055;28;20086;-58
2023/09/10 08:38:42;;;;;;;30.40;26.58;;;25.50;73.10;;;;;;4164238;28;20205;-60
2023/09/10 08:41:31;;;;;;;31.52;27.92;;;25.50;72.90;;;;;;4185738;28;20602;-59
2023/09/10 08:44:17;;;;;;;32.28;25.58;;;25.60;72.90;;;;;;4170464;28;20064;-59
2023/09/10 08:47:02;;;;;;;28.52;25.42;;;25.60;73.10;;;;;;4167875;28;20059;-58
2023/09/10 08:49:44;;;;;;;29.63;25.60;;;25.60;73.20;;;;;;4179291;28;20058;-59
2023/09/10 08:52:26;;;;;;;26.75;23.65;;;25.60;73.20;;;;;;4177162;28;20075;-59
2023/09/10 08:55:09;;;;;;;26.77;23.13;;;25.70;73.10;;;;;;4183501;28;20056;-59
2023/09/10 08:57:53;;;;;;;22.42;19.95;;;25.70;72.80;;;;;;4184643;28;20047;-61
2023/09/10 09:00:36;;;;;;;24.27;19.92;;;25.70;72.60;;;;;;4182260;28;20411;-59
2023/09/10 09:03:18;;;;;;;26.63;20.55;;;25.70;72.40;;;;;;4177731;28;20133;-59
2023/09/10 09:06:03;;;;;;;23.40;20.98;;;25.80;72.20;;;;;;4181219;28;20177;-59
2023/09/10 09:08:51;;;;;;;25.75;22.73;;;25.80;72.00;;;;;;4177339;28;20090;-59
2023/09/10 09:11:36;;;;;;;24.63;19.40;;;25.80;72.10;;;;;;4181226;28;20051;-59
2023/09/10 09:14:18;;;;;;;22.23;19.83;;;25.90;72.40;;;;;;4177571;28;20190;-60
2023/09/10 09:17:01;;;;;;;22.95;19.48;;;25.90;72.10;;;;;;4170516;28;20513;-59
2023/09/10 09:19:44;;;;;;;20.00;17.20;;;25.90;71.90;;;;;;4186289;28;20475;-60
2023/09/10 09:22:31;;;;;;;20.70;18.58;;;26.00;71.70;;;;;;4182007;28;20063;-60
2023/09/10 09:25:14;;;;;;;21.42;17.10;;;26.00;71.60;;;;;;4185509;28;20089;-60
2023/09/10 09:27:57;;;;;;;17.90;16.20;;;26.00;71.60;;;;;;4184636;28;20403;-69
2023/09/10 09:30:39;;;;;;;18.63;16.92;;;26.10;71.60;;;;;;4184415;28;20051;-60
2023/09/10 09:33:22;;;;;;;18.92;16.90;;;26.10;71.50;;;;;;4185479;28;20051;-60
2023/09/10 09:36:07;;;;;;;21.50;19.40;;;26.10;71.30;;;;;;4168217;28;20052;-61
2023/09/10 09:38:50;;;;;;;22.05;18.00;;;26.10;71.20;;;;;;4169180;28;20048;-59
2023/09/10 09:41:35;;;;;;;17.60;15.70;;;26.20;71.20;;;;;;4169645;28;20487;-60
2023/09/10 09:44:16;;;;;;;20.85;18.63;;;26.20;71.50;;;;;;4169416;28;20520;-59
2023/09/10 09:46:57;;;;;;;;;;;26.30;71.60;;;;;;4186565;28;20585;-59
2023/09/10 09:49:45;;;;;;;22.45;19.40;;;26.30;72.40;;;;;;4185567;28;20398;-59
2023/09/10 09:52:27;;;;;;;19.13;17.33;;;26.30;71.40;;;;;;4185629;28;20404;-59
2023/09/10 09:55:10;;;;;;;18.05;16.25;;;26.30;71.20;;;;;;4185232;28;20537;-59
2023/09/10 09:57:51;;;;;;;19.60;15.90;;;26.40;71.30;;;;;;4185915;28;20048;-61
2023/09/10 10:00:34;;;;;;;16.80;15.20;;;26.40;71.50;;;;;;4184799;28;20098;-60
2023/09/10 10:03:19;;;;;;;19.23;16.58;;;26.40;71.40;;;;;;4160596;28;20051;-59
2023/09/10 10:06:03;;;;;;;15.23;13.65;;;26.40;71.10;;;;;;4173008;28;20059;-59
2023/09/10 10:08:49;;;;;;;17.35;15.15;;;26.50;71.00;;;;;;4182570;28;20051;-60
2023/09/10 10:11:33;;;;;;;15.63;13.90;;;26.50;70.80;;;;;;4157252;28;20064;-61
2023/09/10 10:14:15;;;;;;;15.80;13.90;;;26.50;70.60;;;;;;4169178;28;20472;-59
2023/09/10 10:16:58;;;;;;;16.38;14.80;;;26.50;70.60;;;;;;4182384;28;20055;-59
2023/09/10 10:19:41;;;;;;;16.02;14.40;;;26.60;70.60;;;;;;4185368;28;20063;-61
2023/09/10 10:22:23;;;;;;;17.42;12.23;;;26.60;70.50;;;;;;4185646;28;20055;-60
2023/09/10 10:25:06;;;;;;;21.50;14.68;;;26.60;70.60;;;;;;4188397;28;20181;-58
2023/09/10 10:27:49;;;;;;;14.77;13.25;;;26.60;70.60;;;;;;4188693;28;20522;-59
2023/09/10 10:30:32;;;;;;;14.95;13.32;;;26.70;70.80;;;;;;4189352;28;20148;-60
2023/09/10 10:33:15;;;;;;;14.90;13.40;;;26.70;70.80;;;;;;4187667;28;20044;-59
2023/09/10 10:36:06;;;;;;;16.98;14.00;;;26.80;71.00;;;;;;4189135;28;20055;-59
2023/09/10 10:38:53;;;;;;;17.60;14.98;;;26.90;71.20;;;;;;4188472;28;20131;-59
2023/09/10 10:41:38;;;;;;;16.70;14.77;;;26.90;71.10;;;;;;4188303;28;20514;-59
2023/09/10 10:44:23;;;;;;;16.90;13.90;;;27.00;71.10;;;;;;4174122;28;20071;-59
2023/09/10 10:47:13;;;;;;;15.70;13.75;;;27.00;70.90;;;;;;4185912;28;20059;-59
2023/09/10 10:49:55;;;;;;;15.73;14.00;;;27.10;71.10;;;;;;4187086;28;20056;-59
2023/09/10 10:52:40;;;;;;;15.63;14.00;;;27.10;70.90;;;;;;4187617;28;20525;-59
2023/09/10 10:55:23;;;;;;;16.45;14.77;;;27.20;71.40;;;;;;4186708;28;20071;-59
2023/09/10 10:58:04;;;;;;;13.67;12.13;;;27.20;70.10;;;;;;4187820;28;20601;-59
2023/09/10 11:00:49;;;;;;;14.75;12.90;;;27.20;69.90;;;;;;4188561;28;20186;-60
2023/09/10 11:03:32;;;;;;;19.77;13.23;;;27.30;69.90;;;;;;4187503;28;20075;-60
2023/09/10 11:06:13;;;;;;;16.48;14.88;;;27.30;70.50;;;;;;4188229;28;20054;-59
2023/09/10 11:08:54;;;;;;;15.40;13.90;;;27.40;69.20;;;;;;4185536;28;20052;-59
2023/09/10 11:11:48;;;;;;;16.83;13.52;;;27.40;68.90;;;;;;4170140;28;20102;-59
2023/09/10 11:14:29;;;;;;;17.55;13.27;;;27.40;68.50;;;;;;4170738;28;20575;-58
2023/09/10 11:17:22;;;;;;;13.98;12.57;;;27.40;68.50;;;;;;4181288;28;20109;-58
2023/09/10 11:20:05;;;;;;;14.20;12.70;;;27.40;68.50;;;;;;4185275;28;20055;-59
2023/09/10 11:23:06;;;;;;;14.20;12.70;;;27.50;68.80;;;;;;4188424;28;20047;-60
2023/09/10 11:25:47;;;;;;;14.60;12.55;;;27.50;68.90;;;;;;4181807;28;20056;-57
2023/09/10 11:28:40;;;;;;;16.95;12.30;;;27.50;69.10;;;;;;4184120;28;20051;-56
2023/09/10 11:31:37;;;;;;;14.27;12.07;;;27.60;69.00;;;;;;4184874;28;20052;-59
2023/09/10 11:34:40;;;;;;;13.93;12.63;;;27.60;69.10;;;;;;4188548;28;20059;-59
2023/09/10 11:37:23;;;;;;;15.02;12.50;;;27.70;68.70;;;;;;4187806;28;20471;-60
2023/09/10 11:40:05;;;;;;;13.55;12.10;;;27.70;68.70;;;;;;4188033;28;20069;-58
2023/09/10 11:42:47;;;;;;;17.77;11.73;;;27.80;68.40;;;;;;4186574;28;20067;-58
2023/09/10 11:45:33;;;;;;;13.05;11.50;;;27.70;68.70;;;;;;4187554;28;20071;-60
2023/09/10 11:48:14;;;;;;;12.18;10.45;;;27.80;68.80;;;;;;4188051;28;20067;-60
2023/09/10 11:50:56;;;;;;;12.23;10.93;;;27.80;68.90;;;;;;4172143;28;20060;-59
2023/09/10 11:53:37;;;;;;;12.15;9.75;;;27.90;68.90;;;;;;4186632;28;20051;-59
2023/09/10 11:56:17;;;;;;;;;;;27.90;69.00;;;;;;4187282;28;20067;-59
2023/09/10 11:58:58;;;;;;;14.68;10.45;;;28.00;68.90;;;;;;4187359;28;20021;-59
2023/09/10 12:01:41;;;;;;;11.27;10.13;;;28.00;68.50;;;;;;4187630;28;20051;-58
2023/09/10 12:04:27;;;;;;;13.07;9.88;;;28.00;68.10;;;;;;4187542;28;20055;-58
2023/09/10 12:07:08;;;;;;;13.88;10.40;;;28.00;68.50;;;;;;4187696;28;20051;-58
2023/09/10 12:09:50;;;;;;;11.48;10.25;;;28.00;67.40;;;;;;4170481;28;20129;-58
2023/09/10 12:12:34;;;;;;;9.43;8.52;;;28.10;67.40;;;;;;4187254;28;20499;-57
2023/09/10 12:15:16;;;;;;;12.07;9.43;;;28.10;67.40;;;;;;4185762;28;20047;-57
2023/09/10 12:17:59;;;;;;;10.55;8.88;;;28.10;67.40;;;;;;4176729;28;20051;-57
2023/09/10 12:20:41;;;;;;;11.05;9.80;;;28.20;67.40;;;;;;4174416;28;20597;-57
2023/09/10 12:23:22;;;;;;;12.00;9.50;;;28.10;67.20;;;;;;4187236;28;20043;-58
2023/09/10 12:26:04;;;;;;;11.30;9.13;;;28.20;67.00;;;;;;4186923;28;20056;-59
2023/09/10 12:28:45;;;;;;;11.43;9.48;;;28.20;67.10;;;;;;4186363;28;20052;-57
2023/09/10 12:31:26;;;;;;;11.15;9.27;;;28.20;67.20;;;;;;4186422;28;20067;-56
2023/09/10 12:34:09;;;;;;;;;;;28.20;66.50;;;;;;4187400;28;20055;-56
2023/09/10 12:36:51;;;;;;;11.25;8.10;;;28.20;66.80;;;;;;4186865;28;19947;-58
2023/09/10 12:39:33;;;;;;;11.82;8.73;;;28.20;66.90;;;;;;4181183;28;20594;-58
2023/09/10 12:42:14;;;;;;;15.82;8.43;;;28.20;66.80;;;;;;4184488;28;20083;-58
2023/09/10 12:44:55;;;;;;;13.07;8.45;;;28.20;66.80;;;;;;4187253;28;20145;-57
2023/09/10 12:47:37;;;;;;;15.77;9.20;;;28.20;66.80;;;;;;4186822;28;20449;-59
2023/09/10 12:50:20;;;;;;;15.00;9.07;;;28.20;66.40;;;;;;4186575;28;20083;-58
2023/09/10 12:53:03;;;;;;;11.27;9.30;;;28.20;66.60;;;;;;4187151;28;20137;-60
2023/09/10 12:55:44;;;;;;;9.82;8.38;;;28.20;66.80;;;;;;4167788;28;20573;-58
2023/09/10 12:58:26;;;;;;;11.00;8.63;;;28.20;66.90;;;;;;4170280;28;20064;-59
2023/09/10 13:01:14;;;;;;;12.75;8.95;;;28.30;67.10;;;;;;4185372;28;20059;-59
2023/09/10 13:03:55;;;;;;;12.50;9.13;;;28.20;66.90;;;;;;4186577;28;20059;-58
2023/09/10 13:06:37;;;;;;;;;;;28.20;66.80;;;;;;4184162;28;20122;-59
2023/09/10 13:09:18;;;;;;;12.77;8.50;;;28.30;67.00;;;;;;4186567;28;19932;-58
2023/09/10 13:12:00;;;;;;;12.70;8.35;;;28.20;67.00;;;;;;4186439;28;20499;-58
2023/09/10 13:14:41;;;;;;;10.55;8.55;;;28.20;67.20;;;;;;4185682;28;20055;-59
2023/09/10 13:17:22;;;;;;;14.80;8.23;;;28.30;67.30;;;;;;4188775;28;20093;-58
2023/09/10 13:20:04;;;;;;;13.45;9.07;;;28.30;67.10;;;;;;4202471;28;20169;-59
2023/09/10 13:22:46;;;;;;;17.40;8.25;;;28.30;66.80;;;;;;4202771;28;20125;-58
2023/09/10 13:25:27;;;;;;;12.45;8.40;;;28.30;66.70;;;;;;4203387;28;20383;-58
2023/09/10 13:28:09;;;;;;;11.48;7.85;;;28.30;66.70;;;;;;4203034;28;20051;-59
2023/09/10 13:30:49;;;;;;;;;;;28.30;67.30;;;;;;4189920;28;20391;-58
2023/09/10 13:33:31;;;;;;;22.60;8.93;;;28.30;67.50;;;;;;4202160;28;20054;-58
2023/09/10 13:36:14;;;;;;;13.80;8.93;;;28.20;67.20;;;;;;4202563;28;20517;-59
2023/09/10 13:38:57;;;;;;;;;;;28.30;67.10;;;;;;4202926;28;20051;-58
2023/09/10 13:41:38;;;;;;;12.35;8.75;;;28.30;67.00;;;;;;4201245;28;20008;-59
2023/09/10 13:44:18;;;;;;;;;;;28.30;67.00;;;;;;4203103;28;20047;-58
2023/09/10 13:46:59;;;;;;;12.73;8.00;;;28.30;67.00;;;;;;4202799;28;19969;-58
2023/09/10 13:49:40;;;;;;;15.05;8.15;;;28.30;68.00;;;;;;4187251;28;20501;-58
2023/09/10 13:52:21;;;;;;;16.67;8.13;;;28.30;67.10;;;;;;4185642;28;20518;-58
2023/09/10 13:55:05;;;;;;;17.83;7.93;;;28.30;66.90;;;;;;4185143;28;20055;-58
2023/09/10 13:57:46;;;;;;;19.60;7.75;;;28.30;66.60;;;;;;4184224;28;20055;-59